createdAt,value
2023-11-18T00:00:13.854Z,102242.97
2023-11-18T00:02:44.242Z,102242.22
2023-11-18T00:05:12.364Z,102248.38
2023-11-18T00:07:40.366Z,102235.44
2023-11-18T00:10:09.755Z,102237.22
2023-11-18T00:12:38.211Z,102237.31
2023-11-18T00:15:06.353Z,102240.88
2023-11-18T00:17:33.470Z,102243.50
2023-11-18T00:20:00.833Z,102245.28
2023-11-18T00:22:29.117Z,102246.16
2023-11-18T00:24:56.262Z,102242.66
2023-11-18T00:27:24.005Z,102240.94
2023-11-18T00:29:51.091Z,102240.94
2023-11-18T00:32:18.326Z,102239.16
2023-11-18T00:34:45.918Z,102241.72
2023-11-18T00:37:13.234Z,102239.94
2023-11-18T00:39:40.919Z,102236.31
2023-11-18T00:42:07.948Z,102236.25
2023-11-18T00:44:35.503Z,102234.47
2023-11-18T00:47:03.829Z,102237.00
2023-11-18T00:49:31.313Z,102222.94
2023-11-18T00:51:58.477Z,102227.19
2023-11-18T00:54:25.570Z,102222.72
2023-11-18T00:56:53.031Z,102225.19
2023-11-18T00:59:20.060Z,102228.44
2023-11-18T01:01:47.443Z,102223.97
2023-11-18T01:04:14.624Z,102220.31
2023-11-18T01:06:43.911Z,102236.75
2023-11-18T01:09:11.071Z,102229.63
2023-11-18T01:11:38.190Z,102239.97
2023-11-18T01:14:05.283Z,102236.56
2023-11-18T01:16:32.369Z,102243.53
2023-11-18T01:19:00.667Z,102241.84
2023-11-18T01:21:28.647Z,102247.19
2023-11-18T01:23:56.405Z,102241.16
2023-11-18T01:26:24.499Z,102244.00
2023-11-18T01:28:51.771Z,102259.84
2023-11-18T01:31:19.002Z,102254.94
2023-11-18T01:33:47.902Z,102250.78
2023-11-18T01:36:15.148Z,102256.28
2023-11-18T01:38:42.284Z,102261.72
2023-11-18T01:41:10.418Z,102257.63
2023-11-18T01:43:37.957Z,102255.19
2023-11-18T01:46:11.389Z,102257.09
2023-11-18T01:48:40.618Z,102252.06
2023-11-18T01:51:08.637Z,102250.47
2023-11-18T01:53:41.129Z,102255.81
2023-11-18T01:56:09.848Z,102262.97
2023-11-18T01:58:38.269Z,102257.06
2023-11-18T02:01:09.370Z,102251.06
2023-11-18T02:03:37.392Z,102263.41
2023-11-18T02:06:06.906Z,102260.94
2023-11-18T02:08:36.471Z,102254.13
2023-11-18T02:11:42.843Z,102248.13
2023-11-18T02:14:17.335Z,102242.03
2023-11-18T02:16:46.150Z,102243.88
2023-11-18T02:19:22.932Z,102240.44
2023-11-18T02:21:51.076Z,102253.56
2023-11-18T02:24:31.781Z,102247.53
2023-11-18T02:26:59.748Z,102261.53
2023-11-18T02:29:37.729Z,102248.50
2023-11-18T02:32:36.915Z,102262.50
2023-11-18T02:35:36.419Z,102275.53
2023-11-18T02:38:06.559Z,102269.38
2023-11-18T02:40:42.405Z,102266.88
2023-11-18T02:43:10.691Z,102263.44
2023-11-18T02:45:38.867Z,102250.41
2023-11-18T02:48:07.827Z,102246.03
2023-11-18T02:50:36.966Z,102250.47
2023-11-18T02:53:04.177Z,102246.09
2023-11-18T02:55:31.918Z,102237.38
2023-11-18T02:57:59.268Z,102230.38
2023-11-18T03:00:26.355Z,102233.81
2023-11-18T03:02:53.997Z,102225.09
2023-11-18T03:05:22.391Z,102220.72
2023-11-18T03:07:55.040Z,102215.44
2023-11-18T03:10:23.464Z,102211.03
2023-11-18T03:12:53.649Z,102200.44
2023-11-18T03:15:23.733Z,102209.09
2023-11-18T03:17:52.295Z,102204.72
2023-11-18T03:20:24.164Z,102199.56
2023-11-18T03:22:52.508Z,102208.34
2023-11-18T03:25:23.274Z,102205.72
2023-11-18T03:27:50.563Z,102213.56
2023-11-18T03:30:18.440Z,102210.94
2023-11-18T03:32:46.645Z,102217.03
2023-11-18T03:35:14.570Z,102204.94
2023-11-18T03:37:44.030Z,102201.50
2023-11-18T03:40:14.465Z,102198.97
2023-11-18T03:42:43.174Z,102197.31
2023-11-18T03:45:11.300Z,102194.03
2023-11-18T03:47:39.319Z,102182.78
2023-11-18T03:50:09.536Z,102181.13
2023-11-18T03:52:39.159Z,102185.50
2023-11-18T03:55:07.129Z,102172.53
2023-11-18T03:57:34.382Z,102173.34
2023-11-18T04:00:01.644Z,102176.78
2023-11-18T04:02:30.284Z,102160.31
2023-11-18T04:04:57.806Z,102158.59
2023-11-18T04:07:25.113Z,102151.59
2023-11-18T04:09:52.522Z,102150.78
2023-11-18T04:12:20.214Z,102147.28
2023-11-18T04:14:47.300Z,102143.84
2023-11-18T04:17:14.543Z,102150.00
2023-11-18T04:19:42.630Z,102149.28
2023-11-18T04:22:10.680Z,102147.63
2023-11-18T04:24:37.706Z,102144.19
2023-11-18T04:27:05.088Z,102145.97
2023-11-18T04:29:32.367Z,102144.41
2023-11-18T04:32:01.138Z,102139.31
2023-11-18T04:34:28.510Z,102137.66
2023-11-18T04:36:56.085Z,102133.31
2023-11-18T04:39:23.774Z,102130.78
2023-11-18T04:41:51.680Z,102128.25
2023-11-18T04:44:19.051Z,102124.81
2023-11-18T04:46:46.294Z,102119.66
2023-11-18T04:49:13.736Z,102124.94
2023-11-18T04:51:41.126Z,102119.78
2023-11-18T04:54:09.129Z,102116.34
2023-11-18T04:56:36.877Z,102110.31
2023-11-18T04:59:07.799Z,102101.66
2023-11-18T05:01:35.679Z,102106.94
2023-11-18T05:04:02.976Z,102096.56
2023-11-18T05:06:30.241Z,102099.28
2023-11-18T05:08:57.714Z,102096.78
2023-11-18T05:11:24.861Z,102096.84
2023-11-18T05:13:52.043Z,102082.00
2023-11-18T05:16:19.983Z,102076.91
2023-11-18T05:18:47.151Z,102069.09
2023-11-18T05:21:14.435Z,102064.75
2023-11-18T05:23:41.651Z,102066.47
2023-11-18T05:26:10.098Z,102067.34
2023-11-18T05:28:37.603Z,102064.81
2023-11-18T05:31:06.318Z,102066.59
2023-11-18T05:33:35.661Z,102062.25
2023-11-18T05:36:06.280Z,102070.09
2023-11-18T05:38:36.698Z,102071.06
2023-11-18T05:41:04.996Z,102067.63
2023-11-18T05:43:39.570Z,102058.97
2023-11-18T05:46:15.950Z,102051.13
2023-11-18T05:48:45.108Z,102051.13
2023-11-18T05:51:12.787Z,102048.56
2023-11-18T05:53:46.873Z,102052.06
2023-11-18T05:56:15.264Z,102047.75
2023-11-18T05:58:44.544Z,102039.97
2023-11-18T06:01:12.846Z,102047.00
2023-11-18T06:03:41.192Z,102047.00
2023-11-18T06:06:15.165Z,102036.66
2023-11-18T06:08:43.104Z,102034.94
2023-11-18T06:11:15.352Z,102023.66
2023-11-18T06:13:53.522Z,102003.66
2023-11-18T06:16:23.688Z,101999.31
2023-11-18T06:18:54.317Z,102007.16
2023-11-18T06:21:29.640Z,102016.78
2023-11-18T06:23:57.287Z,102035.09
2023-11-18T06:26:28.309Z,102037.78
2023-11-18T06:28:57.066Z,102029.03
2023-11-18T06:31:25.294Z,102022.19
2023-11-18T06:33:53.447Z,102023.97
2023-11-18T06:36:24.661Z,102017.97
2023-11-18T06:38:54.064Z,102017.97
2023-11-18T06:41:27.618Z,102018.03
2023-11-18T06:44:00.777Z,102031.13
2023-11-18T06:46:35.698Z,102020.78
2023-11-18T06:49:08.208Z,102018.16
2023-11-18T06:51:39.559Z,102013.84
2023-11-18T06:54:11.483Z,102012.09
2023-11-18T06:56:45.294Z,102016.50
2023-11-18T06:59:14.812Z,102015.66
2023-11-18T07:01:46.544Z,102007.00
2023-11-18T07:04:15.910Z,101990.38
2023-11-18T07:06:44.409Z,102000.06
2023-11-18T07:09:14.897Z,102013.16
2023-11-18T07:11:43.173Z,102010.69
2023-11-18T07:14:16.244Z,102000.28
2023-11-18T07:16:44.338Z,101996.84
2023-11-18T07:19:18.867Z,101996.91
2023-11-18T07:21:46.009Z,102003.00
2023-11-18T07:24:13.487Z,102009.25
2023-11-18T07:26:40.657Z,101997.09
2023-11-18T07:29:10.880Z,102003.31
2023-11-18T07:31:38.162Z,102005.09
2023-11-18T07:34:06.961Z,102003.50
2023-11-18T07:36:35.263Z,101997.50
2023-11-18T07:39:04.933Z,101993.34
2023-11-18T07:41:35.205Z,101999.56
2023-11-18T07:44:03.111Z,102008.34
2023-11-18T07:46:32.524Z,102005.03
2023-11-18T07:49:02.726Z,102007.75
2023-11-18T07:51:30.207Z,102020.13
2023-11-18T07:53:57.852Z,102019.44
2023-11-18T07:56:24.924Z,102022.53
2023-11-18T07:58:53.517Z,102016.75
2023-11-18T08:01:22.431Z,102002.81
2023-11-18T08:03:52.101Z,102003.72
2023-11-18T08:06:19.648Z,102004.56
2023-11-18T08:08:48.976Z,102008.00
2023-11-18T08:11:16.152Z,102005.44
2023-11-18T08:13:44.644Z,102015.06
2023-11-18T08:16:14.095Z,102012.50
2023-11-18T08:18:41.916Z,102017.91
2023-11-18T08:21:09.121Z,102007.50
2023-11-18T08:23:37.224Z,102002.44
2023-11-18T08:26:06.677Z,101999.03
2023-11-18T08:28:34.108Z,101996.47
2023-11-18T08:31:02.041Z,102000.91
2023-11-18T08:33:30.201Z,101987.84
2023-11-18T08:35:57.942Z,101999.41
2023-11-18T08:38:25.497Z,101990.72
2023-11-18T08:40:53.038Z,101988.25
2023-11-18T08:43:22.342Z,101986.44
2023-11-18T08:45:51.564Z,101986.56
2023-11-18T08:48:19.658Z,101976.03
2023-11-18T08:50:48.102Z,101987.41
2023-11-18T08:53:19.239Z,101981.38
2023-11-18T08:55:52.745Z,101977.97
2023-11-18T08:58:20.803Z,101953.66
2023-11-18T09:00:56.029Z,101949.38
2023-11-18T09:03:26.321Z,101956.31
2023-11-18T09:05:59.789Z,101951.97
2023-11-18T09:08:36.120Z,101959.78
2023-11-18T09:11:09.204Z,101959.81
2023-11-18T09:13:37.098Z,101960.75
2023-11-18T09:16:10.355Z,101958.31
2023-11-18T09:18:43.704Z,101947.09
2023-11-18T09:21:16.865Z,101932.41
2023-11-18T09:23:45.866Z,101927.22
2023-11-18T09:26:13.068Z,101924.69
2023-11-18T09:28:40.184Z,101920.47
2023-11-18T09:31:12.508Z,101921.47
2023-11-18T09:33:46.229Z,101916.44
2023-11-18T09:36:13.726Z,101903.50
2023-11-18T09:38:42.427Z,101907.16
2023-11-18T09:41:14.502Z,101898.53
2023-11-18T09:43:47.428Z,101889.88
2023-11-18T09:46:16.678Z,101877.72
2023-11-18T09:48:51.010Z,101871.72
2023-11-18T09:51:23.907Z,101874.44
2023-11-18T09:53:54.098Z,101873.63
2023-11-18T09:56:58.526Z,101876.41
2023-11-18T09:59:45.788Z,101880.00
2023-11-18T10:02:15.185Z,101879.31
2023-11-18T10:04:43.457Z,101863.81
2023-11-18T10:07:12.555Z,101865.81
2023-11-18T10:09:40.693Z,101863.38
2023-11-18T10:12:13.639Z,101853.94
2023-11-18T10:14:45.145Z,101842.63
2023-11-18T10:17:15.922Z,101840.19
2023-11-18T10:20:14.084Z,101842.00
2023-11-18T10:22:42.007Z,101843.75
2023-11-18T10:25:09.366Z,101845.50
2023-11-18T10:27:36.471Z,101841.16
2023-11-18T10:30:20.314Z,101824.66
2023-11-18T10:33:09.169Z,101812.63
2023-11-18T10:35:37.261Z,101800.63
2023-11-18T10:38:07.796Z,101790.38
2023-11-18T10:40:38.601Z,101794.13
2023-11-18T10:43:11.390Z,101795.94
2023-11-18T10:45:45.135Z,101799.50
2023-11-18T10:48:17.678Z,101799.50
2023-11-18T10:50:51.147Z,101795.28
2023-11-18T10:53:20.070Z,101789.34
2023-11-18T10:55:47.532Z,101778.16
2023-11-18T10:58:15.675Z,101780.91
2023-11-18T11:01:01.623Z,101782.69
2023-11-18T11:03:34.451Z,101774.63
2023-11-18T11:06:05.623Z,101781.56
2023-11-18T11:08:41.706Z,101786.75
2023-11-18T11:11:11.116Z,101780.56
2023-11-18T11:13:39.111Z,101774.50
2023-11-18T11:16:11.739Z,101771.88
2023-11-18T11:18:46.536Z,101759.63
2023-11-18T11:21:29.298Z,101750.91
2023-11-18T11:24:07.180Z,101755.25
2023-11-18T11:27:05.631Z,101744.00
2023-11-18T11:29:44.343Z,101732.69
2023-11-18T11:32:25.982Z,101722.34
2023-11-18T11:34:58.651Z,101697.88
2023-11-18T11:37:28.434Z,101684.81
2023-11-18T11:39:59.725Z,101685.69
2023-11-18T11:42:28.529Z,101670.78
2023-11-18T11:44:57.041Z,101665.47
2023-11-18T11:47:29.281Z,101651.41
2023-11-18T11:50:11.612Z,101644.31
2023-11-18T11:52:49.077Z,101634.59
2023-11-18T11:55:39.779Z,101629.25
2023-11-18T11:58:27.393Z,101627.56
2023-11-18T12:00:55.557Z,101622.34
2023-11-18T12:03:23.989Z,101609.22
2023-11-18T12:05:56.937Z,101593.50
2023-11-18T12:08:24.736Z,101569.03
2023-11-18T12:10:57.523Z,101560.25
2023-11-18T12:13:27.546Z,101563.75
2023-11-18T12:16:07.089Z,101554.16
2023-11-18T12:18:37.853Z,101535.75
2023-11-18T12:21:05.870Z,101536.63
2023-11-18T12:23:36.080Z,101522.66
2023-11-18T12:26:26.193Z,101508.69
2023-11-18T12:28:55.005Z,101507.81
2023-11-18T12:31:41.900Z,101497.31
2023-11-18T12:34:10.279Z,101511.13
2023-11-18T12:37:08.920Z,101519.81
2023-11-18T12:40:14.562Z,101498.84
2023-11-18T12:43:06.101Z,101503.13
2023-11-18T12:46:28.809Z,101478.66
2023-11-18T12:49:01.129Z,101463.06
2023-11-18T12:51:28.645Z,101457.03
2023-11-18T12:53:57.733Z,101447.44
2023-11-18T12:56:25.238Z,101436.13
2023-11-18T12:58:52.970Z,101418.66
2023-11-18T13:01:20.561Z,101414.25
2023-11-18T13:03:48.276Z,101410.75
2023-11-18T13:06:16.232Z,101419.47
2023-11-18T13:08:43.848Z,101411.63
2023-11-18T13:11:17.599Z,101395.88
2023-11-18T13:13:45.024Z,101394.91
2023-11-18T13:16:15.909Z,101386.16
2023-11-18T13:18:50.518Z,101384.50
2023-11-18T13:21:19.986Z,101378.44
2023-11-18T13:23:53.999Z,101381.91
2023-11-18T13:26:22.229Z,101374.03
2023-11-18T13:28:50.466Z,101367.06
2023-11-18T13:31:18.754Z,101365.31
2023-11-18T13:33:49.500Z,101358.34
2023-11-18T13:36:17.024Z,101361.81
2023-11-18T13:38:45.260Z,101344.31
2023-11-18T13:41:14.494Z,101338.22
2023-11-18T13:43:51.204Z,101336.47
2023-11-18T13:46:22.952Z,101326.81
2023-11-18T13:48:50.488Z,101318.94
2023-11-18T13:51:20.606Z,101319.75
2023-11-18T13:53:48.943Z,101300.47
2023-11-18T13:56:16.942Z,101304.81
2023-11-18T13:58:46.840Z,101307.44
2023-11-18T14:01:14.073Z,101328.41
2023-11-18T14:03:44.747Z,101316.09
2023-11-18T14:06:12.192Z,101303.00
2023-11-18T14:08:40.235Z,101288.19
2023-11-18T14:11:15.172Z,101282.91
2023-11-18T14:13:45.678Z,101269.88
2023-11-18T14:16:13.993Z,101271.59
2023-11-18T14:18:43.155Z,101262.00
2023-11-18T14:21:11.055Z,101251.53
2023-11-18T14:23:39.196Z,101255.91
2023-11-18T14:26:09.054Z,101254.16
2023-11-18T14:28:36.493Z,101248.06
2023-11-18T14:31:05.593Z,101232.41
2023-11-18T14:33:35.743Z,101240.22
2023-11-18T14:36:03.229Z,101232.34
2023-11-18T14:38:32.026Z,101231.53
2023-11-18T14:40:59.914Z,101233.22
2023-11-18T14:43:27.377Z,101227.97
2023-11-18T14:45:54.616Z,101229.78
2023-11-18T14:48:21.654Z,101228.03
2023-11-18T14:50:49.226Z,101224.53
2023-11-18T14:53:16.317Z,101223.59
2023-11-18T14:55:44.631Z,101217.47
2023-11-18T14:58:13.221Z,101201.75
2023-11-18T15:00:40.888Z,101194.75
2023-11-18T15:03:08.512Z,101192.19
2023-11-18T15:05:36.153Z,101184.34
2023-11-18T15:08:03.684Z,101177.38
2023-11-18T15:10:30.838Z,101174.75
2023-11-18T15:13:01.735Z,101173.84
2023-11-18T15:15:35.965Z,101173.84
2023-11-18T15:18:10.254Z,101159.84
2023-11-18T15:20:38.508Z,101160.72
2023-11-18T15:23:05.954Z,101149.38
2023-11-18T15:25:33.415Z,101146.78
2023-11-18T15:28:01.725Z,101151.13
2023-11-18T15:30:30.309Z,101151.16
2023-11-18T15:32:57.814Z,101151.16
2023-11-18T15:35:25.102Z,101142.44
2023-11-18T15:37:53.367Z,101140.69
2023-11-18T15:40:20.827Z,101137.19
2023-11-18T15:42:52.339Z,101131.94
2023-11-18T15:45:27.778Z,101132.81
2023-11-18T15:47:55.514Z,101124.16
2023-11-18T15:50:22.968Z,101124.16
2023-11-18T15:52:53.266Z,101127.69
2023-11-18T15:55:22.342Z,101106.69
2023-11-18T15:57:54.540Z,101114.56
2023-11-18T16:00:26.142Z,101109.38
2023-11-18T16:03:01.878Z,101096.28
2023-11-18T16:05:35.926Z,101105.91
2023-11-18T16:08:05.688Z,101092.81
2023-11-18T16:10:33.608Z,101085.81
2023-11-18T16:13:02.291Z,101077.97
2023-11-18T16:15:31.521Z,101078.94
2023-11-18T16:18:00.623Z,101071.03
2023-11-18T16:20:34.604Z,101065.88
2023-11-18T16:23:06.537Z,101057.16
2023-11-18T16:25:37.539Z,101046.66
2023-11-18T16:28:05.765Z,101052.78
2023-11-18T16:30:34.035Z,101057.16
2023-11-18T16:33:03.012Z,101065.91
2023-11-18T16:35:31.303Z,101070.28
2023-11-18T16:38:01.569Z,101065.09
2023-11-18T16:40:29.845Z,101072.09
2023-11-18T16:42:59.986Z,101058.13
2023-11-18T16:45:28.106Z,101048.50
2023-11-18T16:47:55.999Z,101048.56
2023-11-18T16:50:25.924Z,101045.94
2023-11-18T16:52:55.004Z,101039.84
2023-11-18T16:55:22.882Z,101046.84
2023-11-18T16:57:54.167Z,101033.78
2023-11-18T17:00:26.547Z,101041.69
2023-11-18T17:02:58.058Z,101039.94
2023-11-18T17:05:31.221Z,101046.94
2023-11-18T17:08:00.375Z,101033.00
2023-11-18T17:10:28.240Z,101034.75
2023-11-18T17:12:55.844Z,101022.53
2023-11-18T17:15:23.144Z,101030.44
2023-11-18T17:17:55.066Z,101012.97
2023-11-18T17:20:22.877Z,101012.13
2023-11-18T17:22:50.104Z,101003.38
2023-11-18T17:25:18.123Z,100999.91
2023-11-18T17:27:47.000Z,100999.06
2023-11-18T17:30:17.437Z,100992.09
2023-11-18T17:32:46.830Z,100993.84
2023-11-18T17:35:17.808Z,101007.03
2023-11-18T17:37:47.612Z,101014.03
2023-11-18T17:40:17.097Z,101014.94
2023-11-18T17:42:46.272Z,101009.72
2023-11-18T17:45:14.581Z,101016.75
2023-11-18T17:47:44.135Z,101019.41
2023-11-18T17:50:18.577Z,101026.44
2023-11-18T17:52:53.393Z,101024.69
2023-11-18T17:55:20.514Z,101026.47
2023-11-18T17:57:47.985Z,101023.91
2023-11-18T18:00:24.633Z,101018.69
2023-11-18T18:02:53.227Z,101023.06
2023-11-18T18:05:21.514Z,101018.69
2023-11-18T18:07:49.037Z,101013.44
2023-11-18T18:10:17.011Z,101008.22
2023-11-18T18:12:47.845Z,101018.75
2023-11-18T18:15:15.245Z,101004.72
2023-11-18T18:17:42.497Z,101027.50
2023-11-18T18:20:11.093Z,101023.13
2023-11-18T18:22:40.116Z,101032.81
2023-11-18T18:25:08.472Z,101031.94
2023-11-18T18:27:35.646Z,101033.69
2023-11-18T18:30:03.939Z,101033.72
2023-11-18T18:32:31.476Z,101032.88
2023-11-18T18:34:59.492Z,101034.63
2023-11-18T18:37:27.695Z,101031.13
2023-11-18T18:39:57.117Z,101031.13
2023-11-18T18:42:25.615Z,101038.13
2023-11-18T18:44:55.576Z,101021.53
2023-11-18T18:47:23.391Z,101015.38
2023-11-18T18:49:51.108Z,101010.13
2023-11-18T18:52:18.296Z,101021.53
2023-11-18T18:54:46.385Z,101016.28
2023-11-18T18:57:13.915Z,101019.81
2023-11-18T18:59:42.525Z,101009.31
2023-11-18T19:02:11.133Z,101017.19
2023-11-18T19:04:38.434Z,101021.56
2023-11-18T19:07:05.617Z,101011.09
2023-11-18T19:09:33.094Z,101017.22
2023-11-18T19:12:00.330Z,101005.84
2023-11-18T19:14:27.652Z,100993.56
2023-11-18T19:16:54.749Z,100994.44
2023-11-18T19:19:22.269Z,100992.69
2023-11-18T19:21:52.519Z,100996.22
2023-11-18T19:24:20.817Z,100990.97
2023-11-18T19:26:49.193Z,100993.59
2023-11-18T19:29:16.634Z,100984.84
2023-11-18T19:31:43.842Z,100987.47
2023-11-18T19:34:11.603Z,100991.00
2023-11-18T19:36:39.216Z,100980.47
2023-11-18T19:39:08.819Z,100975.22
2023-11-18T19:41:35.946Z,100963.84
2023-11-18T19:44:05.461Z,100958.56
2023-11-18T19:46:32.938Z,100950.66
2023-11-18T19:49:01.504Z,100957.72
2023-11-18T19:51:28.704Z,100956.84
2023-11-18T19:53:55.772Z,100953.31
2023-11-18T19:56:24.409Z,100941.91
2023-11-18T19:58:51.694Z,100943.66
2023-11-18T20:01:19.646Z,100945.44
2023-11-18T20:03:47.943Z,100934.91
2023-11-18T20:06:15.282Z,100950.72
2023-11-18T20:08:42.655Z,100951.59
2023-11-18T20:11:13.244Z,100939.31
2023-11-18T20:13:40.743Z,100939.31
2023-11-18T20:16:10.553Z,100933.16
2023-11-18T20:18:38.610Z,100935.84
2023-11-18T20:21:06.722Z,100922.66
2023-11-18T20:23:34.143Z,100921.78
2023-11-18T20:26:01.779Z,100919.13
2023-11-18T20:28:29.144Z,100912.13
2023-11-18T20:30:56.151Z,100915.66
2023-11-18T20:33:23.386Z,100925.28
2023-11-18T20:35:50.757Z,100935.81
2023-11-18T20:38:18.167Z,100945.47
2023-11-18T20:40:45.778Z,100951.63
2023-11-18T20:43:12.853Z,100945.47
2023-11-18T20:45:41.452Z,100946.34
2023-11-18T20:48:09.322Z,100948.09
2023-11-18T20:50:37.160Z,100947.25
2023-11-18T20:53:05.536Z,100942.84
2023-11-18T20:55:33.239Z,100941.09
2023-11-18T20:58:03.163Z,100940.19
2023-11-18T21:00:31.568Z,100930.56
2023-11-18T21:02:59.096Z,100946.34
2023-11-18T21:05:26.626Z,100947.22
2023-11-18T21:07:54.036Z,100939.31
2023-11-18T21:10:21.543Z,100942.84
2023-11-18T21:12:49.248Z,100936.72
2023-11-18T21:15:17.853Z,100945.50
2023-11-18T21:17:45.103Z,100949.03
2023-11-18T21:20:14.210Z,100944.63
2023-11-18T21:22:43.161Z,100931.44
2023-11-18T21:25:13.493Z,100930.56
2023-11-18T21:27:41.113Z,100938.47
2023-11-18T21:30:11.752Z,100941.97
2023-11-18T21:32:48.664Z,100926.16
2023-11-18T21:35:21.435Z,100924.38
2023-11-18T21:37:49.049Z,100934.94
2023-11-18T21:40:16.111Z,100921.78
2023-11-18T21:42:47.525Z,100934.03
2023-11-18T21:45:17.404Z,100929.66
2023-11-18T21:47:46.400Z,100937.56
2023-11-18T21:50:17.574Z,100932.28
2023-11-18T21:52:45.425Z,100920.84
2023-11-18T21:55:14.336Z,100920.88
2023-11-18T21:57:42.993Z,100922.59
2023-11-18T22:00:17.826Z,100915.53
2023-11-18T22:02:49.419Z,100912.91
2023-11-18T22:05:19.842Z,100914.69
2023-11-18T22:07:47.610Z,100912.91
2023-11-18T22:10:17.895Z,100911.13
2023-11-18T22:12:45.266Z,100910.25
2023-11-18T22:15:18.272Z,100912.00
2023-11-18T22:17:46.572Z,100903.19
2023-11-18T22:20:16.076Z,100892.63
2023-11-18T22:22:43.851Z,100895.28
2023-11-18T22:25:11.468Z,100895.28
2023-11-18T22:27:41.575Z,100893.47
2023-11-18T22:30:13.448Z,100897.88
2023-11-18T22:32:41.592Z,100905.78
2023-11-18T22:35:10.151Z,100888.19
2023-11-18T22:37:37.342Z,100850.38
2023-11-18T22:40:10.831Z,100837.16
2023-11-18T22:42:40.519Z,100828.34
2023-11-18T22:45:17.309Z,100801.06
2023-11-18T22:47:53.291Z,100788.69
2023-11-18T22:50:24.659Z,100798.38
2023-11-18T22:52:54.331Z,100810.66
2023-11-18T22:55:21.489Z,100837.03
2023-11-18T22:57:48.705Z,100859.91
2023-11-18T23:00:33.172Z,100890.66
2023-11-18T23:03:01.284Z,100879.19
2023-11-18T23:05:28.605Z,100891.47
2023-11-18T23:07:59.214Z,100885.34
2023-11-18T23:10:26.858Z,100877.41
2023-11-18T23:12:56.066Z,100870.34
2023-11-18T23:15:25.812Z,100869.47
2023-11-18T23:17:53.506Z,100865.06
2023-11-18T23:20:22.378Z,100869.44
2023-11-18T23:22:51.707Z,100876.47
2023-11-18T23:25:23.975Z,100872.94
2023-11-18T23:28:01.016Z,100879.06
2023-11-18T23:30:29.624Z,100859.69
2023-11-18T23:32:57.039Z,100865.84
2023-11-18T23:35:24.109Z,100870.22
2023-11-18T23:37:55.362Z,100858.78
2023-11-18T23:40:24.010Z,100865.84
2023-11-18T23:42:52.095Z,100867.59
2023-11-18T23:45:20.497Z,100857.88
2023-11-18T23:47:52.345Z,100857.84
2023-11-18T23:50:21.075Z,100860.50
2023-11-18T23:52:48.660Z,100860.50
2023-11-18T23:55:16.162Z,100849.94
2023-11-18T23:57:44.094Z,100859.59
